Time;durP1;ratioP1;P1;durP2;ratioP2;P2;SDS_P1;SDS_P2;PMS_P1;PMS_P2;Temp;Humidity;BMP_temperature;BMP_pressure;BME280_temperature;BME280_humidity;BME280_pressure;Samples;Min_cycle;Max_cycle;Signal;HPM_P1;HPM_P2
2023/03/04 00:01:07;;;;;;;103.82;33.30;;;8.40;99.90;;;;;;5117753;28;20056;-55
2023/03/04 00:03:33;;;;;;;94.22;33.30;;;8.40;99.90;;;;;;5117993;28;20490;-53
2023/03/04 00:05:58;;;;;;;83.43;31.23;;;8.50;99.90;;;;;;5118080;28;20139;-53
2023/03/04 00:08:24;;;;;;;85.00;31.98;;;8.50;99.90;;;;;;5117762;28;20039;-56
2023/03/04 00:10:51;;;;;;;94.07;31.10;;;8.60;99.90;;;;;;5129759;27;20058;-53
2023/03/04 00:13:19;;;;;;;84.28;30.55;;;8.50;99.90;;;;;;5140605;27;20027;-53
2023/03/04 00:15:44;;;;;;;82.68;30.38;;;8.50;99.90;;;;;;5140372;27;20034;-53
2023/03/04 00:18:10;;;;;;;95.30;32.95;;;8.50;99.90;;;;;;5140551;27;20027;-53
2023/03/04 00:20:36;;;;;;;88.60;32.08;;;8.50;99.90;;;;;;5140723;27;20027;-53
2023/03/04 00:23:02;;;;;;;91.40;30.20;;;8.50;99.90;;;;;;5140179;27;20424;-53
2023/03/04 00:25:27;;;;;;;110.50;31.55;;;8.50;99.90;;;;;;5136074;27;20031;-53
2023/03/04 00:27:53;;;;;;;210.38;37.33;;;8.50;99.90;;;;;;5084326;27;20035;-53
2023/03/04 00:30:19;;;;;;;210.05;36.03;;;8.50;99.90;;;;;;5067505;27;20359;-53
2023/03/04 00:32:45;;;;;;;230.85;31.52;;;8.50;99.90;;;;;;5118123;27;20414;-53
2023/03/04 00:35:10;;;;;;;240.48;36.13;;;8.50;99.90;;;;;;5137013;27;20038;-53
2023/03/04 00:37:36;;;;;;;225.30;36.40;;;8.50;99.90;;;;;;5136807;27;20059;-53
2023/03/04 00:40:02;;;;;;;210.73;35.08;;;8.60;99.90;;;;;;5137214;27;20023;-53
2023/03/04 00:42:28;;;;;;;201.10;35.90;;;8.50;99.90;;;;;;5136989;27;20367;-52
2023/03/04 00:44:53;;;;;;;189.50;32.97;;;8.50;99.90;;;;;;5137217;27;20030;-53
2023/03/04 00:47:19;;;;;;;213.63;37.20;;;8.50;99.90;;;;;;5137078;27;20123;-53
2023/03/04 00:49:45;;;;;;;155.63;36.05;;;8.50;99.90;;;;;;5136611;27;20488;-53
2023/03/04 00:52:10;;;;;;;126.68;33.15;;;8.50;99.90;;;;;;5136849;27;20035;-53
2023/03/04 00:54:36;;;;;;;108.18;32.25;;;8.50;99.90;;;;;;5136606;27;20046;-53
2023/03/04 00:57:02;;;;;;;107.82;32.22;;;8.50;99.90;;;;;;5136635;27;20106;-52
2023/03/04 00:59:28;;;;;;;100.15;31.52;;;8.50;99.90;;;;;;5136561;27;20057;-53
2023/03/04 01:01:54;;;;;;;91.22;30.73;;;8.50;99.90;;;;;;5136454;27;20055;-52
2023/03/04 01:04:19;;;;;;;97.25;33.15;;;8.50;99.90;;;;;;5136495;27;20098;-53
2023/03/04 01:06:45;;;;;;;91.95;31.58;;;8.40;99.90;;;;;;5136307;27;20027;-53
2023/03/04 01:09:11;;;;;;;80.18;29.30;;;8.40;99.90;;;;;;5136444;27;20035;-52
2023/03/04 01:11:36;;;;;;;83.80;31.73;;;8.30;99.90;;;;;;5136413;27;20076;-53
2023/03/04 01:14:02;;;;;;;81.50;33.22;;;8.30;99.90;;;;;;5117477;27;20042;-53
2023/03/04 01:16:28;;;;;;;75.75;29.65;;;8.30;99.90;;;;;;5136581;27;20027;-52
2023/03/04 01:18:54;;;;;;;76.30;32.65;;;8.20;99.90;;;;;;5117094;27;20035;-53
2023/03/04 01:21:19;;;;;;;80.95;29.15;;;8.10;99.90;;;;;;5136053;27;20031;-53
2023/03/04 01:23:45;;;;;;;73.63;31.05;;;8.10;99.90;;;;;;5136101;27;20022;-53
2023/03/04 01:26:11;;;;;;;77.45;31.85;;;8.00;99.90;;;;;;5136262;27;20043;-53
2023/03/04 01:28:37;;;;;;;68.32;29.77;;;8.00;99.90;;;;;;5135822;27;20035;-53
2023/03/04 01:31:03;;;;;;;69.65;30.02;;;8.00;99.90;;;;;;5135984;27;20030;-53
2023/03/04 01:33:30;;;;;;;76.70;32.10;;;8.00;99.90;;;;;;5135935;27;20027;-52
2023/03/04 01:35:56;;;;;;;72.65;29.95;;;8.10;99.90;;;;;;5136016;27;20029;-52
2023/03/04 01:38:23;;;;;;;70.15;30.77;;;7.90;99.90;;;;;;5136127;27;20091;-53
2023/03/04 01:40:50;;;;;;;58.30;27.83;;;7.90;99.90;;;;;;5135731;27;20027;-53
2023/03/04 01:43:23;;;;;;;56.67;29.20;;;7.90;99.90;;;;;;5135793;27;20039;-52
2023/03/04 01:45:50;;;;;;;59.47;27.98;;;7.90;99.90;;;;;;5135426;27;20030;-52
2023/03/04 01:48:24;;;;;;;67.07;28.73;;;7.90;99.90;;;;;;5136187;27;20042;-53
2023/03/04 01:50:50;;;;;;;56.08;28.20;;;7.90;99.90;;;;;;5135891;27;20062;-53
2023/03/04 01:53:22;;;;;;;60.63;28.50;;;7.90;99.90;;;;;;5135442;27;20059;-52
2023/03/04 01:55:49;;;;;;;60.85;28.55;;;7.90;99.90;;;;;;5135521;27;20119;-53
2023/03/04 01:58:15;;;;;;;51.85;27.35;;;7.90;99.90;;;;;;5099542;27;20058;-52
2023/03/04 02:00:40;;;;;;;63.97;29.50;;;7.80;99.90;;;;;;5134997;27;20039;-53
2023/03/04 02:03:11;;;;;;;61.70;29.20;;;8.00;99.90;;;;;;5116410;27;20478;-53
2023/03/04 02:05:41;;;;;;;51.10;27.10;;;8.00;99.90;;;;;;5135267;27;20091;-53
2023/03/04 02:08:08;;;;;;;61.17;27.45;;;8.00;99.90;;;;;;5135283;27;20538;-52
2023/03/04 02:10:34;;;;;;;55.30;28.67;;;8.10;99.90;;;;;;5135505;27;20031;-52
2023/03/04 02:13:01;;;;;;;58.67;27.52;;;8.20;99.90;;;;;;5135088;27;20474;-53
2023/03/04 02:15:28;;;;;;;50.10;25.48;;;8.20;99.90;;;;;;5135063;27;20031;-52
2023/03/04 02:17:53;;;;;;;49.28;26.55;;;8.30;99.90;;;;;;5385897;22;20019;-52
2023/03/04 02:20:31;;;;;;;50.53;26.85;;;8.30;99.90;;;;;;5135013;27;20054;-52
2023/03/04 02:23:35;;;;;;;49.88;25.77;;;8.30;99.90;;;;;;5115863;27;20035;-52
2023/03/04 02:26:29;;;;;;;55.35;30.27;;;8.30;99.90;;;;;;5031697;28;20065;-52
2023/03/04 02:28:57;;;;;;;55.58;26.65;;;8.30;99.90;;;;;;5031456;28;20029;-52
2023/03/04 02:31:24;;;;;;;46.17;25.30;;;8.20;99.90;;;;;;5031478;28;20440;-52
2023/03/04 02:33:52;;;;;;;47.28;25.25;;;8.20;99.90;;;;;;5031431;28;20160;-52
2023/03/04 02:36:18;;;;;;;50.63;26.60;;;8.20;99.90;;;;;;5031526;28;20542;-52
2023/03/04 02:38:44;;;;;;;52.78;27.85;;;8.20;99.90;;;;;;5031330;28;20421;-52
2023/03/04 02:41:17;;;;;;;50.05;26.73;;;8.20;99.90;;;;;;5031366;28;20103;-52
2023/03/04 02:43:44;;;;;;;47.40;25.88;;;8.20;99.90;;;;;;5031505;28;20044;-52
2023/03/04 02:46:12;;;;;;;47.40;25.83;;;8.20;99.90;;;;;;5031098;28;20029;-53
2023/03/04 02:48:37;;;;;;;44.95;25.00;;;8.20;99.90;;;;;;5030013;28;20025;-52
2023/03/04 02:51:03;;;;;;;46.88;26.52;;;8.20;99.90;;;;;;5031307;28;20515;-52
2023/03/04 02:53:29;;;;;;;43.17;25.95;;;8.30;99.90;;;;;;4998357;28;20073;-52
2023/03/04 02:55:55;;;;;;;44.60;24.63;;;8.20;99.90;;;;;;5031140;28;20132;-52
2023/03/04 02:58:20;;;;;;;44.80;26.90;;;8.20;99.90;;;;;;5031130;28;20033;-52
2023/03/04 03:00:46;;;;;;;50.13;26.10;;;8.20;99.90;;;;;;5031288;28;20035;-52
2023/03/04 03:03:12;;;;;;;44.70;26.80;;;8.20;99.90;;;;;;5051993;28;20039;-53
2023/03/04 03:05:38;;;;;;;48.10;25.65;;;8.00;99.90;;;;;;5113739;28;20030;-52
2023/03/04 03:08:04;;;;;;;39.47;23.45;;;8.00;99.90;;;;;;5094913;28;20241;-52
2023/03/04 03:10:30;;;;;;;44.03;24.13;;;8.10;99.90;;;;;;5094719;28;20039;-52
2023/03/04 03:12:56;;;;;;;43.05;24.80;;;8.10;99.90;;;;;;5114103;28;20023;-52
2023/03/04 03:15:22;;;;;;;42.53;25.38;;;8.10;99.90;;;;;;5132290;28;20490;-52
2023/03/04 03:17:47;;;;;;;44.78;24.60;;;8.10;99.90;;;;;;5133833;28;20034;-52
2023/03/04 03:20:14;;;;;;;45.58;24.95;;;8.00;99.90;;;;;;5134193;28;20390;-53
2023/03/04 03:22:40;;;;;;;46.08;24.95;;;8.10;99.90;;;;;;5131117;28;20049;-52
2023/03/04 03:25:07;;;;;;;49.97;26.30;;;8.10;99.90;;;;;;5134214;28;20470;-52
2023/03/04 03:27:33;;;;;;;45.97;24.50;;;8.10;99.90;;;;;;5134030;28;20027;-52
2023/03/04 03:29:58;;;;;;;41.95;23.13;;;8.10;99.90;;;;;;5134048;28;20109;-52
2023/03/04 03:32:24;;;;;;;44.30;26.50;;;7.90;99.90;;;;;;5133977;28;20030;-52
2023/03/04 03:34:50;;;;;;;43.88;24.75;;;7.90;99.90;;;;;;5134091;28;20080;-52
2023/03/04 03:37:16;;;;;;;46.75;25.52;;;7.80;99.90;;;;;;5133846;28;20030;-52
2023/03/04 03:39:42;;;;;;;45.60;27.15;;;;;;;;;;5133943;28;20027;-52
2023/03/04 03:42:08;;;;;;;53.78;25.25;;;;;;;;;;5133922;28;20129;-52
2023/03/04 03:44:34;;;;;;;41.65;25.60;;;;;;;;;;5133719;28;20508;-53
2023/03/04 03:47:00;;;;;;;46.28;25.73;;;7.70;99.90;;;;;;5127889;28;20114;-52
2023/03/04 03:49:26;;;;;;;45.17;25.42;;;7.70;99.90;;;;;;5113371;28;20016;-52
2023/03/04 03:51:52;;;;;;;48.00;27.42;;;7.70;99.90;;;;;;5113507;28;20039;-53
2023/03/04 03:54:17;;;;;;;44.25;25.92;;;7.70;99.90;;;;;;5113257;28;20028;-52
2023/03/04 03:56:43;;;;;;;50.90;28.35;;;7.80;99.90;;;;;;5113552;28;20023;-51
2023/03/04 03:59:09;;;;;;;49.30;27.88;;;7.70;99.90;;;;;;5097193;28;20035;-51
2023/03/04 04:01:35;;;;;;;50.30;27.60;;;7.70;99.90;;;;;;5117094;28;20019;-52
2023/03/04 04:04:00;;;;;;;46.65;28.77;;;7.70;99.90;;;;;;5081214;28;20089;-52
2023/03/04 04:06:26;;;;;;;43.08;23.75;;;7.70;99.90;;;;;;5117466;28;20471;-52
2023/03/04 04:08:52;;;;;;;48.85;26.48;;;7.70;99.90;;;;;;5125570;27;20405;-53
2023/03/04 04:11:18;;;;;;;47.70;28.50;;;7.60;99.90;;;;;;5130495;27;20424;-53
2023/03/04 04:13:44;;;;;;;55.05;29.23;;;7.60;99.90;;;;;;5089930;28;20031;-52
2023/03/04 04:16:10;;;;;;;48.80;25.95;;;7.60;99.90;;;;;;5067012;27;20035;-52
2023/03/04 04:18:36;;;;;;;48.88;28.05;;;7.50;99.90;;;;;;5040479;28;20051;-53
2023/03/04 04:21:03;;;;;;;51.45;29.27;;;7.40;99.90;;;;;;5089831;28;20040;-53
2023/03/04 04:23:29;;;;;;;53.05;27.67;;;7.50;99.90;;;;;;5077358;28;20040;-53
2023/03/04 04:25:55;;;;;;;46.40;24.23;;;7.60;99.90;;;;;;5077382;28;20028;-53
2023/03/04 04:28:21;;;;;;;55.25;29.20;;;7.70;99.90;;;;;;5096262;28;20024;-53
2023/03/04 04:30:47;;;;;;;49.90;29.10;;;7.70;99.90;;;;;;5077452;28;20543;-53
2023/03/04 04:33:12;;;;;;;55.47;29.63;;;7.60;99.90;;;;;;5095043;28;20028;-53
2023/03/04 04:35:38;;;;;;;54.15;29.45;;;7.60;99.90;;;;;;5096099;28;20024;-53
2023/03/04 04:38:05;;;;;;;55.15;29.38;;;7.70;99.90;;;;;;5077270;28;20112;-53
2023/03/04 04:40:31;;;;;;;51.47;30.00;;;7.60;99.90;;;;;;5096342;28;20443;-53
2023/03/04 04:42:57;;;;;;;55.90;26.90;;;7.60;99.90;;;;;;5096016;28;20105;-53
2023/03/04 04:45:26;;;;;;;54.92;31.02;;;7.50;99.90;;;;;;5095696;28;20107;-53
2023/03/04 04:47:56;;;;;;;47.53;27.70;;;7.50;99.90;;;;;;5095861;28;20044;-53
2023/03/04 04:50:23;;;;;;;55.70;29.50;;;7.60;99.90;;;;;;5089734;28;20067;-53
2023/03/04 04:52:48;;;;;;;54.05;30.70;;;7.70;99.90;;;;;;5075504;28;20024;-52
2023/03/04 04:55:14;;;;;;;57.95;31.77;;;7.60;99.90;;;;;;5075470;28;20581;-52
2023/03/04 04:57:40;;;;;;;57.85;29.70;;;7.60;99.90;;;;;;5075144;28;20039;-52
2023/03/04 05:00:07;;;;;;;57.45;31.98;;;7.60;99.90;;;;;;5075478;28;20029;-52
2023/03/04 05:02:36;;;;;;;52.63;30.45;;;7.60;99.90;;;;;;5075418;28;20135;-53
2023/03/04 05:05:03;;;;;;;55.13;30.65;;;7.60;99.90;;;;;;5075692;28;20369;-53
2023/03/04 05:07:29;;;;;;;58.22;30.60;;;7.50;99.90;;;;;;5074980;28;20086;-53
2023/03/04 05:09:55;;;;;;;54.55;31.95;;;7.60;99.90;;;;;;5074774;28;20029;-53
2023/03/04 05:12:20;;;;;;;60.78;32.88;;;7.60;99.90;;;;;;5075127;28;20028;-53
2023/03/04 05:14:46;;;;;;;51.17;30.65;;;7.70;99.90;;;;;;5075024;28;20029;-53
2023/03/04 05:17:12;;;;;;;55.30;30.67;;;7.80;99.90;;;;;;5075156;28;20028;-53
2023/03/04 05:19:37;;;;;;;60.63;31.20;;;7.80;99.90;;;;;;5106920;28;20130;-53
2023/03/04 05:22:03;;;;;;;50.30;31.17;;;7.80;99.90;;;;;;5063249;28;20078;-53
2023/03/04 05:24:29;;;;;;;52.97;31.27;;;7.80;99.90;;;;;;5115585;28;20031;-53
2023/03/04 05:26:55;;;;;;;57.00;31.58;;;7.90;99.90;;;;;;5115384;28;20027;-53
2023/03/04 05:29:20;;;;;;;60.00;33.45;;;7.90;99.90;;;;;;5115750;28;20032;-53
2023/03/04 05:31:46;;;;;;;57.33;31.38;;;7.80;99.90;;;;;;5115341;28;20152;-53
2023/03/04 05:34:12;;;;;;;59.42;31.48;;;7.90;99.90;;;;;;5115316;28;20475;-53
2023/03/04 05:36:37;;;;;;;56.47;32.42;;;7.90;99.90;;;;;;5115028;28;20031;-53
2023/03/04 05:39:03;;;;;;;59.20;33.15;;;7.90;99.90;;;;;;5115310;28;20103;-53
2023/03/04 05:41:29;;;;;;;64.85;34.65;;;8.00;99.90;;;;;;5045896;28;20127;-53
2023/03/04 05:43:55;;;;;;;59.95;33.05;;;7.90;99.90;;;;;;5115328;28;20027;-53
2023/03/04 05:46:24;;;;;;;69.32;35.30;;;8.00;99.90;;;;;;5115073;28;20028;-53
2023/03/04 05:48:51;;;;;;;59.25;33.97;;;8.00;99.90;;;;;;5096565;28;20047;-53
2023/03/04 05:51:17;;;;;;;63.75;33.05;;;8.00;99.90;;;;;;5115475;28;20029;-53
2023/03/04 05:53:43;;;;;;;59.53;33.63;;;8.10;99.90;;;;;;5115168;28;20095;-53
2023/03/04 05:56:15;;;;;;;61.88;33.20;;;8.10;99.90;;;;;;5079149;28;20554;-53
2023/03/04 05:58:41;;;;;;;65.07;33.45;;;8.10;99.90;;;;;;5079034;28;20110;-53
2023/03/04 06:01:07;;;;;;;58.85;33.47;;;8.20;99.90;;;;;;5114877;28;20039;-53
2023/03/04 06:03:34;;;;;;;60.72;32.42;;;8.30;99.90;;;;;;5114972;28;20020;-54
2023/03/04 06:06:00;;;;;;;58.45;34.47;;;8.10;99.90;;;;;;5114628;28;20028;-53
2023/03/04 06:08:26;;;;;;;61.63;34.67;;;8.20;99.90;;;;;;5114596;28;20035;-53
2023/03/04 06:10:55;;;;;;;60.33;32.88;;;8.30;99.90;;;;;;5114463;28;20137;-53
2023/03/04 06:13:21;;;;;;;63.20;33.78;;;8.10;99.90;;;;;;5093257;28;20085;-53
2023/03/04 06:15:52;;;;;;;59.08;32.88;;;8.20;99.90;;;;;;5114958;28;20049;-53
2023/03/04 06:18:17;;;;;;;54.92;31.15;;;8.20;99.90;;;;;;5095437;28;20046;-53
2023/03/04 06:20:44;;;;;;;55.90;31.90;;;8.20;99.90;;;;;;5114414;28;20023;-53
2023/03/04 06:23:09;;;;;;;59.65;33.25;;;8.30;99.90;;;;;;5113743;28;20050;-53
2023/03/04 06:25:35;;;;;;;57.22;31.48;;;8.50;99.90;;;;;;5078386;28;20032;-54
2023/03/04 06:28:01;;;;;;;59.17;33.50;;;8.70;99.90;;;;;;5114204;28;20043;-53
2023/03/04 06:30:27;;;;;;;61.50;32.58;;;8.70;99.90;;;;;;5114269;28;20019;-53
2023/03/04 06:32:53;;;;;;;60.72;34.60;;;8.80;99.90;;;;;;5114062;28;20035;-53
2023/03/04 06:35:18;;;;;;;55.67;32.35;;;9.00;99.90;;;;;;5114295;28;20065;-53
2023/03/04 06:37:45;;;;;;;49.05;32.38;;;;;;;;;;5113960;28;20027;-53
2023/03/04 06:40:11;;;;;;;58.85;33.83;;;9.20;99.90;;;;;;5114167;28;20028;-53
2023/03/04 06:42:38;;;;;;;56.08;34.15;;;;;;;;;;5078055;28;20062;-53
2023/03/04 06:45:05;;;;;;;61.28;33.83;;;9.30;99.90;;;;;;5114107;28;20411;-53
2023/03/04 06:47:31;;;;;;;58.65;31.85;;;;;;;;;;5113873;28;20071;-53
2023/03/04 06:49:57;;;;;;;55.45;32.22;;;9.40;99.90;;;;;;5114278;28;20030;-53
2023/03/04 06:52:22;;;;;;;50.42;30.65;;;9.40;99.90;;;;;;5114146;28;20102;-53
2023/03/04 06:54:48;;;;;;;53.10;31.27;;;9.50;99.90;;;;;;5114063;28;20534;-53
2023/03/04 06:57:14;;;;;;;58.63;33.03;;;9.50;99.90;;;;;;5061667;28;20032;-53
2023/03/04 06:59:40;;;;;;;56.58;31.08;;;9.60;99.90;;;;;;5113685;28;20027;-55
2023/03/04 07:02:09;;;;;;;55.85;31.17;;;9.70;99.90;;;;;;5113893;28;20028;-53
2023/03/04 07:04:34;;;;;;;47.08;28.85;;;9.70;99.90;;;;;;5094704;28;20059;-53
2023/03/04 07:07:00;;;;;;;49.22;27.77;;;9.60;99.90;;;;;;5114274;28;20067;-53
2023/03/04 07:09:26;;;;;;;53.63;29.27;;;9.70;99.90;;;;;;5113697;28;20024;-53
2023/03/04 07:11:51;;;;;;;47.90;28.40;;;9.70;99.90;;;;;;5077626;28;20039;-54
2023/03/04 07:14:17;;;;;;;49.05;29.42;;;9.70;99.90;;;;;;5113699;28;20048;-53
2023/03/04 07:16:43;;;;;;;53.35;31.75;;;9.70;99.90;;;;;;5114008;28;20059;-54
2023/03/04 07:19:09;;;;;;;48.05;28.45;;;9.80;99.90;;;;;;5113456;28;20052;-53
2023/03/04 07:21:34;;;;;;;43.35;27.13;;;9.80;99.90;;;;;;5094743;28;20088;-54
2023/03/04 07:24:00;;;;;;;45.78;26.77;;;9.80;99.90;;;;;;5113628;28;20020;-53
2023/03/04 07:26:26;;;;;;;46.35;27.80;;;9.80;99.90;;;;;;5061359;28;20114;-53
2023/03/04 07:28:53;;;;;;;45.75;27.65;;;9.80;99.90;;;;;;5113651;28;20170;-53
2023/03/04 07:31:28;;;;;;;45.30;28.77;;;9.90;99.90;;;;;;5113617;28;20023;-53
2023/03/04 07:33:59;;;;;;;40.33;24.90;;;10.00;99.90;;;;;;5102794;27;20030;-53
2023/03/04 07:36:26;;;;;;;46.20;27.67;;;10.00;99.90;;;;;;5134673;27;20023;-53
2023/03/04 07:38:55;;;;;;;36.15;22.60;;;10.10;99.90;;;;;;5071056;28;20075;-54
2023/03/04 07:41:23;;;;;;;45.00;25.95;;;10.00;99.90;;;;;;5047661;28;20447;-53
2023/03/04 07:43:49;;;;;;;44.28;25.67;;;10.10;99.90;;;;;;4996716;28;20588;-53
2023/03/04 07:46:15;;;;;;;41.85;25.90;;;10.10;99.90;;;;;;5064755;28;20051;-54
2023/03/04 07:48:41;;;;;;;41.55;25.20;;;10.20;99.90;;;;;;5062456;28;20033;-54
2023/03/04 07:51:09;;;;;;;42.38;25.25;;;10.30;99.90;;;;;;5063529;28;20035;-53
2023/03/04 07:53:36;;;;;;;40.22;24.25;;;10.40;99.90;;;;;;5067475;28;20036;-53
2023/03/04 07:56:03;;;;;;;35.28;22.60;;;10.40;99.90;;;;;;5074211;28;20060;-53
2023/03/04 07:58:29;;;;;;;33.92;22.17;;;10.40;99.90;;;;;;5074193;28;20062;-53
2023/03/04 08:00:55;;;;;;;43.45;23.45;;;10.40;99.90;;;;;;5074246;28;20427;-53
2023/03/04 08:03:21;;;;;;;38.17;22.95;;;10.50;99.90;;;;;;5074302;28;20033;-53
2023/03/04 08:05:46;;;;;;;37.80;22.45;;;10.60;99.90;;;;;;5040774;28;20028;-53
2023/03/04 08:08:12;;;;;;;41.08;26.05;;;10.60;99.90;;;;;;5073855;28;20043;-54
2023/03/04 08:10:38;;;;;;;36.28;24.17;;;10.70;99.90;;;;;;5107902;28;20035;-54
2023/03/04 08:13:05;;;;;;;33.25;21.98;;;10.50;99.90;;;;;;5114569;28;20035;-53
2023/03/04 08:15:32;;;;;;;33.78;22.40;;;10.40;99.90;;;;;;5133098;27;20418;-53
2023/03/04 08:17:58;;;;;;;35.90;23.08;;;10.60;99.90;;;;;;5137162;27;20523;-53
2023/03/04 08:20:24;;;;;;;35.88;20.75;;;10.80;99.90;;;;;;5137344;27;20027;-54
2023/03/04 08:22:50;;;;;;;29.38;20.13;;;10.80;99.90;;;;;;5137162;27;20015;-54
2023/03/04 08:25:16;;;;;;;41.47;21.42;;;10.90;99.90;;;;;;5137339;27;20027;-53
2023/03/04 08:27:42;;;;;;;27.05;18.92;;;11.00;99.90;;;;;;5137235;27;20035;-54
2023/03/04 08:30:09;;;;;;;31.08;20.48;;;11.10;99.90;;;;;;5137300;27;20034;-53
2023/03/04 08:32:35;;;;;;;30.27;19.90;;;11.00;99.90;;;;;;5136942;27;20094;-54
2023/03/04 08:35:01;;;;;;;27.73;20.00;;;11.20;99.90;;;;;;5137331;27;20104;-53
2023/03/04 08:37:28;;;;;;;30.52;20.15;;;11.20;99.90;;;;;;5136946;27;20026;-54
2023/03/04 08:39:54;;;;;;;29.80;19.48;;;11.30;99.90;;;;;;5137005;27;20023;-53
2023/03/04 08:42:20;;;;;;;32.30;18.40;;;11.50;99.90;;;;;;5136990;27;20498;-54
2023/03/04 08:44:45;;;;;;;37.60;23.95;;;11.70;99.90;;;;;;5135978;27;20023;-53
2023/03/04 08:47:11;;;;;;;30.58;20.65;;;11.80;99.90;;;;;;5136877;27;20431;-53
2023/03/04 08:49:37;;;;;;;29.00;18.50;;;;;;;;;;5136842;27;20501;-54
2023/03/04 08:52:03;;;;;;;24.33;16.88;;;12.10;99.90;;;;;;5136887;27;20019;-54
2023/03/04 08:54:29;;;;;;;28.85;18.05;;;12.20;99.90;;;;;;5137164;27;20080;-53
2023/03/04 08:56:55;;;;;;;24.10;17.92;;;12.40;99.90;;;;;;5084004;27;20038;-54
2023/03/04 08:59:21;;;;;;;26.33;17.52;;;12.40;99.90;;;;;;5136763;27;20059;-54
2023/03/04 09:01:46;;;;;;;19.90;12.35;;;12.60;99.90;;;;;;5136580;27;20102;-53
2023/03/04 09:04:12;;;;;;;38.55;21.73;;;12.70;99.90;;;;;;5136915;27;20358;-54
2023/03/04 09:06:38;;;;;;;26.05;17.67;;;12.90;99.90;;;;;;5136377;27;20031;-54
2023/03/04 09:09:04;;;;;;;27.60;19.52;;;12.90;99.90;;;;;;5135821;27;20034;-54
2023/03/04 09:11:30;;;;;;;31.80;22.27;;;13.10;99.90;;;;;;5136377;27;20092;-54
2023/03/04 09:13:56;;;;;;;29.40;20.15;;;12.80;99.90;;;;;;5136290;27;20204;-54
2023/03/04 09:16:22;;;;;;;27.35;20.20;;;12.70;99.90;;;;;;5117526;27;20137;-54
2023/03/04 09:18:48;;;;;;;29.75;20.02;;;12.50;99.90;;;;;;5135814;27;20047;-54
2023/03/04 09:21:14;;;;;;;34.17;21.92;;;12.50;99.90;;;;;;5136086;27;20027;-54
2023/03/04 09:23:40;;;;;;;33.95;20.05;;;12.80;99.90;;;;;;5136069;27;20099;-53
2023/03/04 09:26:19;;;;;;;29.23;21.80;;;12.50;99.90;;;;;;5136587;27;20064;-54
2023/03/04 09:28:48;;;;;;;31.65;20.58;;;12.40;99.90;;;;;;5082299;27;20062;-54
2023/03/04 09:31:14;;;;;;;28.10;19.42;;;12.60;99.90;;;;;;5135910;27;20023;-56
2023/03/04 09:33:41;;;;;;;26.25;19.23;;;12.60;99.90;;;;;;5135804;27;20027;-54
2023/03/04 09:36:12;;;;;;;34.17;22.00;;;12.70;99.90;;;;;;5132047;27;20114;-54
2023/03/04 09:38:38;;;;;;;30.85;21.83;;;13.00;99.90;;;;;;5135916;27;20031;-54
2023/03/04 09:41:07;;;;;;;26.40;18.05;;;13.20;99.90;;;;;;5135486;27;20051;-54
2023/03/04 09:43:36;;;;;;;27.05;20.27;;;12.60;99.90;;;;;;5135623;27;20497;-54
2023/03/04 09:46:08;;;;;;;30.25;18.63;;;13.00;99.90;;;;;;5135723;27;20126;-55
2023/03/04 09:48:53;;;;;;;37.70;26.65;;;12.60;99.90;;;;;;5135613;27;20042;-54
2023/03/04 09:51:31;;;;;;;28.42;22.08;;;12.90;99.90;;;;;;5135413;27;20425;-54
2023/03/04 09:54:07;;;;;;;30.15;19.58;;;13.00;99.90;;;;;;5135453;27;20485;-54
2023/03/04 09:56:37;;;;;;;28.48;21.98;;;12.70;99.90;;;;;;5135323;27;20398;-54
2023/03/04 09:59:14;;;;;;;31.77;23.05;;;12.90;99.90;;;;;;5135838;27;20027;-54
2023/03/04 10:01:53;;;;;;;26.85;20.30;;;12.90;99.90;;;;;;5099348;27;20035;-55
2023/03/04 10:04:41;;;;;;;31.20;22.25;;;13.00;99.90;;;;;;5082045;27;20039;-54
2023/03/04 10:07:25;;;;;;;33.55;23.35;;;13.00;99.90;;;;;;5098964;27;20047;-54
2023/03/04 10:10:03;;;;;;;27.30;19.52;;;;;;;;;;5135105;27;20028;-53
2023/03/04 10:12:34;;;;;;;38.05;23.58;;;12.70;99.90;;;;;;5135008;27;20049;-54
2023/03/04 10:15:16;;;;;;;30.52;22.83;;;12.60;99.90;;;;;;5116193;27;20039;-54
2023/03/04 10:17:47;;;;;;;51.70;37.00;;;12.80;99.90;;;;;;5135092;27;20031;-54
2023/03/04 10:20:25;;;;;;;34.47;23.38;;;12.50;99.90;;;;;;5134996;27;20039;-54
2023/03/04 10:22:57;;;;;;;53.28;33.17;;;12.80;99.90;;;;;;5099412;27;20039;-54
2023/03/04 10:25:25;;;;;;;;;;;12.70;99.90;;;;;;5135313;27;20098;-53
2023/03/04 10:28:03;;;;;;;51.10;31.88;;;12.20;99.90;;;;;;5134837;27;19919;-54
2023/03/04 10:31:01;;;;;;;32.38;21.50;;;12.00;99.90;;;;;;5134735;27;20105;-54
2023/03/04 10:33:30;;;;;;;35.50;25.00;;;12.30;99.90;;;;;;5031616;28;20056;-54
2023/03/04 10:36:12;;;;;;;33.25;23.92;;;12.70;99.90;;;;;;5031466;28;20037;-53
2023/03/04 10:38:40;;;;;;;30.80;23.95;;;12.60;99.90;;;;;;5031633;28;20053;-54
2023/03/04 10:41:15;;;;;;;46.92;34.88;;;12.70;99.90;;;;;;5031478;28;20493;-54
2023/03/04 10:43:44;;;;;;;41.35;30.33;;;12.70;99.90;;;;;;5031371;28;20061;-53
2023/03/04 10:46:11;;;;;;;41.05;26.17;;;12.40;99.90;;;;;;5031172;28;20037;-55
2023/03/04 10:48:41;;;;;;;36.05;24.80;;;12.40;99.90;;;;;;5031272;28;20025;-54
2023/03/04 10:51:26;;;;;;;36.40;22.73;;;12.40;99.90;;;;;;5031276;28;20091;-54
2023/03/04 10:54:18;;;;;;;43.70;26.88;;;12.40;99.90;;;;;;5002346;28;20504;-54
2023/03/04 10:56:52;;;;;;;;;;;12.60;99.90;;;;;;4972922;28;20046;-54
2023/03/04 10:59:39;;;;;;;38.10;26.17;;;12.60;99.90;;;;;;4972312;28;19906;-54
2023/03/04 11:02:31;;;;;;;33.45;24.60;;;12.70;99.90;;;;;;4972551;28;20574;-54
2023/03/04 11:05:16;;;;;;;35.85;25.90;;;12.60;99.90;;;;;;4972359;28;20494;-54
2023/03/04 11:07:51;;;;;;;41.72;28.02;;;12.80;99.90;;;;;;4971717;28;20515;-54
2023/03/04 11:10:26;;;;;;;36.33;24.13;;;12.80;99.90;;;;;;5050916;28;20115;-53
2023/03/04 11:13:00;;;;;;;30.67;20.70;;;13.00;99.90;;;;;;5050918;28;20124;-54
2023/03/04 11:15:29;;;;;;;34.97;24.60;;;12.70;99.90;;;;;;5051009;28;20041;-54
2023/03/04 11:18:29;;;;;;;35.33;24.60;;;13.10;99.90;;;;;;5048917;28;20041;-54
2023/03/04 11:20:56;;;;;;;33.22;25.95;;;13.00;99.90;;;;;;5005327;28;20041;-53
2023/03/04 11:23:33;;;;;;;35.25;27.00;;;12.80;99.90;;;;;;5031019;28;20021;-54
2023/03/04 11:26:02;;;;;;;38.22;27.55;;;13.00;99.90;;;;;;5031186;28;20469;-53
2023/03/04 11:28:40;;;;;;;35.90;24.67;;;13.00;99.90;;;;;;5030626;28;20063;-54
2023/03/04 11:31:13;;;;;;;33.00;23.95;;;13.00;99.90;;;;;;5030986;28;20140;-53
2023/03/04 11:34:08;;;;;;;33.33;25.52;;;13.10;99.90;;;;;;5059828;28;20119;-53
2023/03/04 11:36:50;;;;;;;34.33;25.15;;;12.90;99.90;;;;;;5092857;28;20103;-54
2023/03/04 11:39:30;;;;;;;39.38;25.73;;;13.00;99.90;;;;;;5093390;28;20340;-53
2023/03/04 11:42:25;;;;;;;31.35;21.77;;;13.00;99.90;;;;;;5060432;28;20081;-54
2023/03/04 11:44:51;;;;;;;36.25;23.65;;;13.00;99.90;;;;;;5074135;28;20032;-54
2023/03/04 11:47:35;;;;;;;31.67;24.67;;;13.10;99.90;;;;;;5074380;28;20044;-54
2023/03/04 11:50:17;;;;;;;35.15;24.15;;;12.90;99.90;;;;;;5091199;28;20024;-54
2023/03/04 11:52:55;;;;;;;;;;;12.80;99.90;;;;;;5070621;28;20039;-54
2023/03/04 11:55:47;;;;;;;26.95;19.15;;;12.60;99.90;;;;;;5086830;28;19911;-54
2023/03/04 11:58:43;;;;;;;34.05;22.23;;;13.10;99.90;;;;;;5030590;28;20034;-54
2023/03/04 12:01:15;;;;;;;32.75;22.13;;;13.00;99.90;;;;;;5029462;28;20030;-53
2023/03/04 12:04:02;;;;;;;40.83;24.55;;;13.10;99.90;;;;;;5030024;28;20073;-54
2023/03/04 12:06:43;;;;;;;41.03;23.80;;;13.10;99.90;;;;;;5029327;28;20455;-54
2023/03/04 12:09:36;;;;;;;35.72;25.48;;;13.40;99.90;;;;;;5027740;28;20073;-54
2023/03/04 12:12:25;;;;;;;31.67;20.90;;;13.50;99.90;;;;;;5024162;28;20029;-54
2023/03/04 12:15:12;;;;;;;32.72;22.05;;;13.60;99.90;;;;;;5026836;28;20091;-54
2023/03/04 12:17:43;;;;;;;27.80;19.50;;;13.70;99.90;;;;;;5027692;28;20064;-55
2023/03/04 12:20:40;;;;;;;32.97;21.60;;;13.30;99.90;;;;;;5039459;28;20041;-54
2023/03/04 12:23:45;;;;;;;28.02;19.60;;;13.30;99.90;;;;;;5041107;28;20037;-55
2023/03/04 12:26:34;;;;;;;27.58;18.40;;;13.50;99.90;;;;;;4982902;28;20442;-54
2023/03/04 12:29:11;;;;;;;38.70;26.23;;;13.40;99.90;;;;;;4983205;28;20039;-54
2023/03/04 12:31:45;;;;;;;43.75;29.73;;;13.60;99.90;;;;;;4983043;28;20061;-54
2023/03/04 12:34:14;;;;;;;66.15;41.42;;;13.60;99.90;;;;;;4980620;28;20031;-54
2023/03/04 12:37:01;;;;;;;122.85;70.65;;;13.50;99.90;;;;;;5051141;28;21503;-54
2023/03/04 12:39:48;;;;;;;37.00;23.88;;;13.50;99.90;;;;;;5049544;28;20029;-54
2023/03/04 12:42:22;;;;;;;136.60;80.32;;;13.30;99.90;;;;;;5049167;28;20531;-54
2023/03/04 12:45:15;;;;;;;81.10;49.50;;;13.20;99.90;;;;;;5050789;28;20056;-54
2023/03/04 12:47:43;;;;;;;34.55;22.45;;;13.40;99.90;;;;;;5051115;28;20079;-55